»·PEaware :: N15JG 15AZ-KRAL

N15JG :: 15AZ-KRAL

FLIGHT INFORMATION

Flight Status: Arrived
Operator: Privately registered:
United States
More flights under this callsign
Pilot: Anonymous 11047 (11047)
Aircraft: Unknown
(BA58)
More flights by this aircraft type
Origin: 15AZ Quail Mesa
United States
Destination: KRAL Riverside Mun
United States
More flights between these airports :: More routes between these airports
Route: +BLH PSP
File this flight plan on PilotEdge
Remarks: Alpha Challenge
Altitude:
(Current/Filed)
6,500ft
Speed:
(Current/Filed)
180kts
Departed: 19-Dec-16 07:52 PM
Arrived: 19-Dec-16 09:18 PM
Distance/Time
Traveled:
148nm/1:26
Distance/Time
To Go:
Arrived

Flight Plot

Page will automatically refresh every two minutes.


Map Options




Map Legend


Flown Route
Filed Route
Departure Airport
Arrival Airport
Navaid (VOR, NDB)
Fix

Horizontal Profiles

Position Reports

Time Latitude Longitude Heading Altitude Ground
Speed
19-Dec-16 19:36 33.745252 -114.478898 94 284ft 0kts
19-Dec-16 19:37 33.745252 -114.478898 94 284ft 0kts
19-Dec-16 19:38 33.745244 -114.478749 98 284ft 0kts
19-Dec-16 19:39 33.745244 -114.478746 97 284ft 0kts
19-Dec-16 19:40 33.745244 -114.478746 97 284ft 0kts
19-Dec-16 19:41 33.744735 -114.477340 8 284ft 9kts
19-Dec-16 19:42 33.746876 -114.477066 4 286ft 9kts
19-Dec-16 19:43 33.749452 -114.476910 2 286ft 10kts
19-Dec-16 19:44 33.739435 -114.478542 192 405ft 117kts
19-Dec-16 19:45 33.713490 -114.496898 247 1992ft 122kts
19-Dec-16 19:46 33.700919 -114.528573 254 3220ft 126kts
19-Dec-16 19:47 33.693343 -114.559728 263 4353ft 128kts
19-Dec-16 19:48 33.682806 -114.594919 238 5315ft 142kts
19-Dec-16 19:49 33.663265 -114.625354 232 6274ft 138kts
19-Dec-16 19:50 33.705743 -114.515180 247 2675ft 127kts
19-Dec-16 19:51 33.693281 -114.550453 255 3419ft 126kts
19-Dec-16 19:52 33.688285 -114.589712 259 4029ft 126kts
19-Dec-16 19:53 33.670881 -114.623040 241 4581ft 133kts
19-Dec-16 19:54 33.654240 -114.654287 244 5148ft 132kts
19-Dec-16 19:55 33.639622 -114.681923 236 5597ft 134kts
19-Dec-16 19:56 33.627674 -114.697465 232 5875ft 136kts
19-Dec-16 19:57 33.609535 -114.725500 243 6322ft 133kts
19-Dec-16 19:58 33.592471 -114.754238 244 6709ft 137kts
19-Dec-16 19:59 33.593817 -114.793206 284 6481ft 154kts
19-Dec-16 20:00 33.602171 -114.833505 289 6508ft 151kts
19-Dec-16 20:01 33.610037 -114.867809 289 6444ft 153kts
19-Dec-16 20:02 33.615813 -114.894659 289 6428ft 153kts
19-Dec-16 20:03 33.625959 -114.936197 292 6351ft 152kts
19-Dec-16 20:04 33.636405 -114.977283 288 6243ft 154kts
19-Dec-16 20:05 33.643341 -115.017570 281 6458ft 147kts
19-Dec-16 20:06 33.648332 -115.058034 283 6535ft 148kts
19-Dec-16 20:07 33.654768 -115.100777 286 6675ft 165kts
19-Dec-16 20:08 33.664235 -115.147345 286 6557ft 175kts
19-Dec-16 20:09 33.671639 -115.189196 285 6508ft 177kts
19-Dec-16 20:10 33.673071 -115.197832 285 6500ft 177kts
19-Dec-16 20:11 33.678273 -115.226556 285 6560ft 174kts
19-Dec-16 20:12 33.683633 -115.271399 280 6598ft 173kts
19-Dec-16 20:13 33.688223 -115.324992 279 6373ft 181kts
19-Dec-16 20:14 33.691454 -115.362838 280 6473ft 176kts
19-Dec-16 20:15 33.695720 -115.407255 282 6493ft 176kts
19-Dec-16 20:16 33.702819 -115.451260 286 6501ft 174kts
19-Dec-16 20:17 33.709515 -115.495956 274 6476ft 178kts
19-Dec-16 20:18 33.712861 -115.541374 280 6494ft 173kts
19-Dec-16 20:19 33.715994 -115.586002 280 6503ft 173kts
19-Dec-16 20:20 33.719778 -115.631189 281 6490ft 176kts
19-Dec-16 20:21 33.724524 -115.672662 280 6537ft 174kts
19-Dec-16 20:22 33.728928 -115.716472 282 6463ft 178kts
19-Dec-16 20:23 33.736211 -115.759645 285 6373ft 180kts
19-Dec-16 20:24 33.744654 -115.800441 291 6521ft 173kts
19-Dec-16 20:25 33.757166 -115.840886 296 6500ft 175kts
19-Dec-16 20:26 33.771398 -115.881706 288 6459ft 176kts
19-Dec-16 20:27 33.775214 -115.925200 277 6491ft 175kts
19-Dec-16 20:28 33.779337 -115.968763 282 6454ft 174kts
19-Dec-16 20:29 33.783997 -116.011987 286 6481ft 170kts
19-Dec-16 20:30 33.792233 -116.053111 288 6485ft 173kts
19-Dec-16 20:31 33.801555 -116.094526 290 6445ft 172kts
19-Dec-16 20:32 33.812999 -116.135254 289 6486ft 173kts
19-Dec-16 20:33 33.823461 -116.175166 288 6577ft 170kts
19-Dec-16 20:34 33.831857 -116.215869 285 6570ft 173kts
19-Dec-16 20:35 33.837621 -116.257364 280 6602ft 173kts
19-Dec-16 20:36 33.845727 -116.298324 290 6598ft 172kts
19-Dec-16 20:37 33.855646 -116.338913 285 6631ft 172kts
19-Dec-16 20:38 33.860802 -116.379796 281 6664ft 172kts
19-Dec-16 20:39 33.866340 -116.420060 286 6702ft 171kts
19-Dec-16 20:40 33.872135 -116.460798 280 6667ft 173kts
19-Dec-16 20:41 33.876041 -116.501628 281 6678ft 174kts
19-Dec-16 20:42 33.880011 -116.542680 282 6731ft 172kts
19-Dec-16 20:43 33.884201 -116.585650 276 6667ft 177kts
19-Dec-16 20:44 33.885117 -116.629936 277 6687ft 177kts
19-Dec-16 20:45 33.889311 -116.673476 282 6752ft 173kts
19-Dec-16 20:46 33.894370 -116.719834 279 6756ft 177kts
19-Dec-16 20:47 33.897280 -116.767193 277 6527ft 179kts
19-Dec-16 20:48 33.899696 -116.814051 277 6277ft 174kts
19-Dec-16 20:49 33.902709 -116.856112 275 5684ft 155kts
19-Dec-16 20:50 33.906509 -116.894880 277 4994ft 149kts
19-Dec-16 20:51 33.911030 -116.931990 278 4433ft 144kts
19-Dec-16 20:52 33.914128 -116.968052 272 3845ft 140kts
19-Dec-16 20:53 33.917682 -117.000623 276 3665ft 130kts
19-Dec-16 20:54 33.919795 -117.032990 275 3721ft 137kts
19-Dec-16 20:55 33.921899 -117.067353 273 3622ft 148kts
19-Dec-16 20:56 33.923083 -117.103681 272 3280ft 151kts
19-Dec-16 20:57 33.924732 -117.139975 274 2775ft 147kts
19-Dec-16 20:58 33.925491 -117.167653 271 2480ft 106kts
19-Dec-16 20:59 33.924425 -117.191767 273 2266ft 112kts
19-Dec-16 21:00 33.926758 -117.215152 280 2535ft 112kts
19-Dec-16 21:01 33.930482 -117.239012 283 2705ft 116kts
19-Dec-16 21:02 33.935076 -117.263118 284 2882ft 126kts
19-Dec-16 21:03 33.939648 -117.290840 274 2876ft 142kts
19-Dec-16 21:04 33.940448 -117.322199 277 2448ft 151kts
19-Dec-16 21:05 33.943329 -117.349160 279 2005ft 111kts
19-Dec-16 21:06 33.944700 -117.371693 270 1744ft 114kts
19-Dec-16 21:07 33.943038 -117.394608 271 1640ft 123kts
19-Dec-16 21:08 33.947216 -117.417775 284 1139ft 109kts
19-Dec-16 21:09 33.951140 -117.437905 285 805ft 86kts
19-Dec-16 21:10 33.951726 -117.443658 195 780ft 0kts
19-Dec-16 21:11 33.950672 -117.443235 18 780ft 0kts
19-Dec-16 21:12 33.950684 -117.443230 18 780ft 0kts
19-Dec-16 21:13 33.950684 -117.443230 18 780ft 0kts

Navigation Log

Ident Type
Flight plan parsing failed, navigation log unavailable